createdAt,value
2022-11-13T00:00:24.717Z,99
2022-11-13T00:05:31.088Z,99
2022-11-13T00:10:20.122Z,99
2022-11-13T00:15:26.125Z,99
2022-11-13T00:20:32.292Z,99
2022-11-13T00:25:21.195Z,99
2022-11-13T00:30:27.360Z,99
2022-11-13T00:35:16.420Z,99
2022-11-13T00:40:22.398Z,99
2022-11-13T00:45:28.576Z,99
2022-11-13T00:50:16.869Z,99
2022-11-13T00:55:22.875Z,99
2022-11-13T01:00:29.178Z,99
2022-11-13T01:05:18.311Z,99
2022-11-13T01:10:24.413Z,99
2022-11-13T01:15:30.415Z,99
2022-11-13T01:20:19.503Z,99
2022-11-13T01:25:25.631Z,99
2022-11-13T01:30:31.679Z,99
2022-11-13T01:35:20.615Z,99
2022-11-13T01:40:26.765Z,99
2022-11-13T01:45:32.767Z,99
2022-11-13T01:50:21.328Z,99
2022-11-13T01:55:27.330Z,99
2022-11-13T02:00:16.712Z,99
2022-11-13T02:05:22.605Z,99
2022-11-13T02:10:27.979Z,99
2022-11-13T02:15:16.819Z,99
2022-11-13T02:20:23.087Z,99
2022-11-13T02:25:28.994Z,99
2022-11-13T02:30:22.022Z,99
2022-11-13T02:35:24.104Z,99
2022-11-13T02:40:30.115Z,99
2022-11-13T02:45:19.137Z,99
2022-11-13T02:50:24.732Z,99
2022-11-13T02:55:30.786Z,99
2022-11-13T03:00:19.812Z,99
2022-11-13T03:05:31.232Z,99
2022-11-13T03:10:17.297Z,99
2022-11-13T03:15:21.219Z,99
2022-11-13T03:20:27.331Z,99
2022-11-13T03:25:16.445Z,99
2022-11-13T03:30:22.392Z,99
2022-11-13T03:35:31.261Z,99
2022-11-13T03:40:17.611Z,99
2022-11-13T03:45:23.605Z,99
2022-11-13T03:50:29.190Z,99
2022-11-13T03:55:18.171Z,99
2022-11-13T04:00:24.267Z,99
2022-11-13T04:05:30.386Z,99
2022-11-13T04:10:19.366Z,99
2022-11-13T04:15:25.418Z,99
2022-11-13T04:20:31.605Z,99
2022-11-13T04:25:20.619Z,99
2022-11-13T04:30:26.616Z,99
2022-11-13T04:35:32.737Z,99
2022-11-13T04:40:21.792Z,99
2022-11-13T04:45:27.878Z,99
2022-11-13T04:50:16.423Z,99
2022-11-13T04:55:22.499Z,99
2022-11-13T05:00:28.528Z,99
2022-11-13T05:05:16.926Z,99
2022-11-13T05:10:22.952Z,99
2022-11-13T05:15:29.739Z,99
2022-11-13T05:20:18.360Z,99
2022-11-13T05:25:24.017Z,99
2022-11-13T05:30:30.156Z,99
2022-11-13T05:35:19.214Z,99
2022-11-13T05:40:25.189Z,99
2022-11-13T05:45:31.253Z,99
2022-11-13T05:50:19.648Z,99
2022-11-13T05:55:25.819Z,99
2022-11-13T06:00:31.819Z,99
2022-11-13T06:05:21.209Z,99
2022-11-13T06:10:27.164Z,99
2022-11-13T06:15:16.279Z,99
2022-11-13T06:20:22.355Z,99
2022-11-13T06:25:28.334Z,99
2022-11-13T06:30:17.379Z,99
2022-11-13T06:35:23.482Z,99
2022-11-13T06:40:29.598Z,99
2022-11-13T06:45:18.505Z,99
2022-11-13T06:50:24.180Z,99
2022-11-13T06:55:30.302Z,99
2022-11-13T07:00:19.513Z,99
2022-11-13T07:05:24.580Z,99
2022-11-13T07:10:30.654Z,99
2022-11-13T07:15:19.761Z,99
2022-11-13T07:20:25.846Z,99
2022-11-13T07:25:31.810Z,99
2022-11-13T07:30:20.912Z,99
2022-11-13T07:35:27.046Z,99
2022-11-13T07:40:16.060Z,98
2022-11-13T07:45:22.040Z,98
2022-11-13T07:50:27.624Z,98
2022-11-13T07:55:16.790Z,98
2022-11-13T08:00:22.710Z,98
2022-11-13T08:05:29.070Z,98
2022-11-13T08:10:18.124Z,98
2022-11-13T08:15:24.152Z,98
2022-11-13T08:20:30.183Z,98
2022-11-13T08:25:19.336Z,97
2022-11-13T08:30:25.313Z,97
2022-11-13T08:35:31.303Z,96
2022-11-13T08:40:20.468Z,96
2022-11-13T08:45:26.533Z,95
2022-11-13T08:50:31.821Z,94
2022-11-13T08:55:20.964Z,93
2022-11-13T09:00:27.071Z,93
2022-11-13T09:05:16.328Z,92
2022-11-13T09:10:22.373Z,87
2022-11-13T09:15:28.470Z,84
2022-11-13T09:20:22.452Z,87
2022-11-13T09:25:23.481Z,87
2022-11-13T09:30:29.593Z,84
2022-11-13T09:35:18.652Z,84
2022-11-13T09:40:24.686Z,84
2022-11-13T09:45:30.796Z,83
2022-11-13T09:50:19.177Z,81
2022-11-13T09:55:25.178Z,80
2022-11-13T10:00:31.251Z,79
2022-11-13T10:05:19.595Z,80
2022-11-13T10:10:25.706Z,80
2022-11-13T10:15:31.694Z,80
2022-11-13T10:20:20.814Z,80
2022-11-13T10:25:26.864Z,80
2022-11-13T10:30:15.887Z,78
2022-11-13T10:35:21.947Z,78
2022-11-13T10:40:27.925Z,77
2022-11-13T10:45:17.100Z,76
2022-11-13T10:50:22.485Z,75
2022-11-13T10:55:28.569Z,75
2022-11-13T11:00:17.895Z,74
2022-11-13T11:05:24.100Z,74
2022-11-13T11:10:30.079Z,74
2022-11-13T11:15:19.109Z,74
2022-11-13T11:20:25.189Z,73
2022-11-13T11:25:31.176Z,74
2022-11-13T11:30:20.295Z,75
2022-11-13T11:35:26.334Z,75
2022-11-13T11:40:32.506Z,75
2022-11-13T11:45:21.392Z,75
2022-11-13T11:50:26.974Z,75
2022-11-13T11:55:16.029Z,74
2022-11-13T12:00:22.267Z,75
2022-11-13T12:05:28.616Z,75
2022-11-13T12:10:18.376Z,75
2022-11-13T12:15:23.672Z,75
2022-11-13T12:20:29.631Z,75
2022-11-13T12:25:18.701Z,74
2022-11-13T12:30:24.797Z,74
2022-11-13T12:35:30.798Z,75
2022-11-13T12:40:19.932Z,75
2022-11-13T12:45:25.927Z,75
2022-11-13T12:50:32.752Z,76
2022-11-13T12:55:20.437Z,76
2022-11-13T13:00:26.648Z,76
2022-11-13T13:05:31.978Z,77
2022-11-13T13:10:20.952Z,77
2022-11-13T13:15:26.935Z,77
2022-11-13T13:20:16.010Z,77
2022-11-13T13:25:22.151Z,78
2022-11-13T13:30:28.213Z,78
2022-11-13T13:35:17.261Z,80
2022-11-13T13:40:23.317Z,80
2022-11-13T13:45:29.375Z,81
2022-11-13T13:50:17.860Z,81
2022-11-13T13:55:23.848Z,82
2022-11-13T14:00:30.050Z,82
2022-11-13T14:05:19.238Z,83
2022-11-13T14:10:25.352Z,83
2022-11-13T14:15:31.379Z,84
2022-11-13T14:20:20.780Z,84
2022-11-13T14:25:26.630Z,85
2022-11-13T14:30:32.580Z,85
2022-11-13T14:35:21.512Z,86
2022-11-13T14:40:27.701Z,87
2022-11-13T14:45:16.685Z,88
2022-11-13T14:50:22.095Z,88
2022-11-13T14:55:28.136Z,88
2022-11-13T15:00:17.350Z,89
2022-11-13T15:05:23.650Z,89
2022-11-13T15:10:29.668Z,90
2022-11-13T15:15:18.693Z,90
2022-11-13T15:20:25.548Z,91
2022-11-13T15:25:30.897Z,90
2022-11-13T15:30:19.796Z,91
2022-11-13T15:35:25.913Z,91
2022-11-13T15:40:31.886Z,91
2022-11-13T15:45:21.083Z,91
2022-11-13T15:50:26.111Z,91
2022-11-13T15:55:32.253Z,91
2022-11-13T16:00:21.491Z,92
2022-11-13T16:05:26.645Z,92
2022-11-13T16:10:15.626Z,92
2022-11-13T16:15:22.145Z,92
2022-11-13T16:20:27.778Z,92
2022-11-13T16:25:16.932Z,92
2022-11-13T16:30:22.983Z,92
2022-11-13T16:35:29.002Z,92
2022-11-13T16:40:18.063Z,92
2022-11-13T16:45:24.127Z,92
2022-11-13T16:50:30.393Z,92
2022-11-13T16:55:19.509Z,92
2022-11-13T17:00:25.597Z,93
2022-11-13T17:05:31.151Z,93
2022-11-13T17:10:35.567Z,93
2022-11-13T17:15:26.318Z,93
2022-11-13T17:20:32.254Z,93
2022-11-13T17:25:21.343Z,93
2022-11-13T17:30:27.329Z,93
2022-11-13T17:35:16.473Z,93
2022-11-13T17:40:22.467Z,93
2022-11-13T17:45:28.648Z,93
2022-11-13T17:50:17.040Z,93
2022-11-13T17:55:23.035Z,93
2022-11-13T18:00:29.133Z,93
2022-11-13T18:05:18.454Z,93
2022-11-13T18:10:24.481Z,93
2022-11-13T18:15:30.742Z,93
2022-11-13T18:20:19.733Z,93
2022-11-13T18:25:25.678Z,93
2022-11-13T18:30:32.548Z,93
2022-11-13T18:35:20.812Z,93
2022-11-13T18:40:26.851Z,93
2022-11-13T18:45:32.940Z,93
2022-11-13T18:50:21.368Z,93
2022-11-13T18:55:27.365Z,93
2022-11-13T19:00:16.744Z,93
2022-11-13T19:05:21.819Z,93
2022-11-13T19:10:27.821Z,93
2022-11-13T19:15:16.947Z,93
2022-11-13T19:20:23.033Z,93
2022-11-13T19:25:28.972Z,93
2022-11-13T19:30:18.149Z,93
2022-11-13T19:35:24.111Z,93
2022-11-13T19:40:30.319Z,93
2022-11-13T19:45:19.251Z,94
2022-11-13T19:50:24.648Z,93
2022-11-13T19:55:30.695Z,93
2022-11-13T20:00:20.070Z,93
2022-11-13T20:05:26.104Z,93
2022-11-13T20:10:32.068Z,93
2022-11-13T20:15:21.200Z,93
2022-11-13T20:20:27.302Z,93
2022-11-13T20:25:16.295Z,93
2022-11-13T20:30:22.361Z,93
2022-11-13T20:35:28.421Z,93
2022-11-13T20:40:17.487Z,93
2022-11-13T20:45:23.566Z,93
2022-11-13T20:50:29.111Z,93
2022-11-13T20:55:18.189Z,93
2022-11-13T21:00:24.349Z,94
2022-11-13T21:05:30.401Z,94
2022-11-13T21:10:19.378Z,94
2022-11-13T21:15:25.471Z,94
2022-11-13T21:20:31.522Z,94
2022-11-13T21:25:20.561Z,94
2022-11-13T21:30:26.649Z,94
2022-11-13T21:35:32.726Z,93
2022-11-13T21:40:21.688Z,93
2022-11-13T21:45:27.847Z,93
2022-11-13T21:50:16.638Z,93
2022-11-13T21:55:22.801Z,94
2022-11-13T22:00:28.802Z,93
2022-11-13T22:05:18.178Z,93
2022-11-13T22:10:24.171Z,94
2022-11-13T22:15:30.307Z,94
2022-11-13T22:20:19.572Z,94
2022-11-13T22:25:25.429Z,94
2022-11-13T22:30:31.442Z,93
2022-11-13T22:35:20.492Z,94
2022-11-13T22:40:26.560Z,94
2022-11-13T22:45:32.616Z,93
2022-11-13T22:50:21.103Z,93
2022-11-13T22:55:27.256Z,93
2022-11-13T23:00:16.473Z,93
2022-11-13T23:05:21.690Z,93
2022-11-13T23:10:27.703Z,93
2022-11-13T23:15:16.665Z,93
2022-11-13T23:20:22.933Z,93
2022-11-13T23:25:28.890Z,93
2022-11-13T23:30:17.884Z,93
2022-11-13T23:35:23.962Z,93
2022-11-13T23:40:30.000Z,93
2022-11-13T23:45:19.094Z,93
2022-11-13T23:50:24.509Z,93
2022-11-13T23:55:30.682Z,93
